Potsdam, NY

44° 42' 44"N, 74° 57' 12"W, Elevation 460 ft.
Eastern Time

Hourly observations for the last 72 hours

Date Time Temperature (°F) Humi-
dity

(%)
Wind
(mph)
Pressure Rain (in)
Air Dew 6 Hour 1 Hr 3 Hr 6 Hr Day
Alt
(in)
Sea
Level

(mb)
Max Min
20 12:00 81.8 76.1 83 Calm 29.77 1008.1 0.00
20 11:00 81.8 76.1 83 Calm 29.77 1008.1 0.00
20 10:00 81.8 76.1 83 Calm 29.77 1008.1 0.00
20 09:00 81.8 76.1 83 Calm 29.77 1008.1 0.00
20 08:00 81.8 76.1 81.8 81.8 83 Calm 29.77 1008.1 0.00
20 07:00 81.8 76.1 83 Calm 29.77 1008.1 0.00
20 06:00 81.8 76.1 83 Calm 29.77 1008.1 0.00
20 05:00 81.8 76.1 83 SSW 1 G 5 29.76 1007.9 0.00
20 04:00 81.8 76.1 83 S 1 G 7 29.75 1007.3 0.00
20 03:00 81.8 76.1 83 S 1 G 8 29.75 1007.4 0.00
20 02:00 81.8 76.1 82.5 81.8 83 SSW 2 G 8 29.75 1007.5 0.00
20 01:00 81.8 76.1 83 SSW 2 G 8 29.75 1007.6 0.00
20 00:00 81.8 76.1 83 SSW 2 G 12 29.75 1007.6 0.00
19 23:00 81.8 76.1 83 SW 4 G 12 29.74 1007.3 0.00
19 22:00 81.8 76.1 83 S 2 G 9 29.74 1007.0 0.00
19 21:00 81.8 76.1 83 WSW 1 G 11 29.73 1006.6 0.00
19 20:00 82.5 76.5 86.8 82.5 82 SW 3 G 10 29.71 1006.1 0.00
19 19:00 84.2 77.4 80 SSE 0 G 8 29.71 1006.0 0.00
19 18:00 84.6 77.4 79 SW 1 G 9 29.71 1006.1 0.00
19 17:00 84.5 77.3 79 SW 2 G 15 29.71 1006.1 0.00
19 16:00 84.3 77.1 79 SSW 5 G 13 29.73 1006.6 0.00
19 15:00 86.7 79.0 78 S 3 G 12 29.72 1006.5 0.00
19 14:00 84.9 76.9 87.1 73.2 77 WSW 5 G 14 29.73 1006.9 0.00
19 13:00 87.1 77.8 74 WNW 3 G 15 29.72 1006.5 0.00
19 12:00 86.1 78.1 77 WNW 4 G 14 29.74 1007.2 0.00
19 11:00 83.0 76.2 80 W 4 G 13 29.75 1007.4 0.00
19 10:00 81.6 74.8 80 W 4 G 12 29.75 1007.4 0.00
19 09:00 73.2 67.4 82 W 3 G 16 29.75 1007.7 0.00
19 08:00 73.2 67.4 73.2 73.2 82 SSW 4 G 11 29.76 1007.8 0.00
19 07:00 73.2 67.4 82 S 4 G 12 29.75 1007.6 0.00
19 06:00 73.2 67.4 82 S 5 G 13 29.75 1007.5 0.00
19 05:00 73.2 67.4 82 S 1 G 6 29.76 1007.7 0.00
19 04:00 73.2 67.4 82 S 0 G 3 29.77 1008.3 0.00
19 03:00 73.2 67.4 82 S 3 G 8 29.78 1008.4 0.00
19 02:00 73.2 67.4 73.8 73.2 82 S 2 G 6 29.79 1008.9 0.00
19 01:00 73.2 67.4 82 SSE 0 G 3 29.80 1009.3 0.00
19 00:00 73.2 67.4 82 SSE 1 G 4 29.81 1009.4 0.00
18 23:00 73.2 67.4 82 Calm 29.81 1009.5 0.00
18 22:00 73.2 67.4 82 Calm 29.83 1010.3 0.00
18 21:00 73.2 67.4 82 Calm 29.84 1010.4 0.00
18 20:00 73.8 67.6 85.1 73.8 81 Calm 29.84 1010.5 0.00
18 19:00 77.5 67.8 72 E 0 G 2 29.85 1010.8 0.00
18 18:00 82.3 69.8 66 E 0 G 2 29.86 1011.4 0.00
18 17:00 83.7 69.3 62 N 0 G 6 29.88 1011.9 0.00
18 16:00 84.3 72.2 67 NNE 1 G 8 29.89 1012.3 0.00
18 15:00 84.6 71.1 64 NNE 0 G 6 29.90 1012.4 0.00
18 14:00 82.5 70.0 82.5 69.7 66 E 1 G 4 29.89 1012.1 0.00
18 13:00 80.4 69.3 69 E 1 G 9 29.91 1013.0 0.00
18 12:00 78.7 69.3 73 NE 0 G 11 29.93 1013.7 0.00
18 11:00 76.2 67.3 74 E 1 G 5 29.97 1015.0 0.00
18 10:00 71.8 65.3 80 SE 1 G 7 29.98 1015.2 0.00
18 09:00 73.7 71.6 93 E 2 G 7 29.97 1014.9 0.00
18 08:00 73.7 71.6 73.7 73.7 93 E 1 G 9 29.98 1015.1 0.00
18 07:00 73.7 71.6 93 ENE 1 G 8 29.97 1015.0 0.00
18 06:00 73.7 71.6 93 SE 0 G 4 29.97 1015.0 0.00
18 05:00 73.7 71.6 93 NE 0 G 4 29.97 1014.8 0.00
18 04:00 73.7 71.6 93 ENE 0 G 1 29.94 1013.9 0.00
18 03:00 73.7 71.6 93 ENE 0 G 3 29.92 1013.4 0.00
18 02:00 73.7 71.6 74.1 73.7 93 WNW 0 G 1 29.92 1013.4 0.00
18 01:00 73.7 71.6 93 Calm 29.93 1013.7 0.00
18 00:00 73.7 71.6 93 Calm 29.94 1013.8 0.03
17 23:00 73.7 71.6 93 Calm 29.93 1013.6 0.03
17 22:00 73.7 71.6 93 Calm 29.91 1012.9 0.03
17 21:00 73.7 71.6 93 Calm 29.90 1012.6 0.03
17 20:00 74.1 71.9 78.1 71.7 93 Calm 29.90 1012.5 0.03 0.03
17 19:00 74.6 72.1 92 W 0 G 3 29.89 1012.2 0.03
17 18:00 73.4 71.6 94 SW 0 G 5 29.87 1011.4 0.03
17 17:00 72.1 70.6 95 SW 0 G 6 29.87 1011.7 0.03 0.03
17 16:00 74.6 73.1 95 W 2 G 7 29.87 1011.4 0.03 0.03
17 15:00 78.0 74.5 89 WNW 0 G 6 29.85 1010.9 0.00
17 14:00 77.5 74.0 82.0 73.8 89 W 2 G 9 29.86 1011.2 0.00
17 13:00 78.3 74.1 87 W 0 G 9 29.86 1011.2 0.00

Data generated by WxSolution Version 1.9.1.5, Build 2018.05.20.